sensor_id;sensor_type;location;lat;lon;timestamp;P1;durP1;ratioP1;P2;durP2;ratioP2
84996;SDS011;75312;47.528;19.016;2024-03-08T00:00:19;28.77;;;26.77;;
84996;SDS011;75312;47.528;19.016;2024-03-08T00:00:52;29.23;;;27.17;;
84996;SDS011;75312;47.528;19.016;2024-03-08T00:01:25;29.57;;;27.33;;
84996;SDS011;75312;47.528;19.016;2024-03-08T00:01:55;30.33;;;28.07;;
84996;SDS011;75312;47.528;19.016;2024-03-08T00:02:26;28.87;;;27.03;;
84996;SDS011;75312;47.528;19.016;2024-03-08T00:02:59;29.87;;;28.07;;
84996;SDS011;75312;47.528;19.016;2024-03-08T00:03:31;28.07;;;26.30;;
84996;SDS011;75312;47.528;19.016;2024-03-08T00:04:02;27.97;;;26.30;;
84996;SDS011;75312;47.528;19.016;2024-03-08T00:04:33;29.63;;;27.43;;
84996;SDS011;75312;47.528;19.016;2024-03-08T00:05:04;29.10;;;27.27;;
84996;SDS011;75312;47.528;19.016;2024-03-08T00:05:39;29.60;;;27.47;;
84996;SDS011;75312;47.528;19.016;2024-03-08T00:06:09;29.80;;;27.33;;
84996;SDS011;75312;47.528;19.016;2024-03-08T00:06:42;29.37;;;27.23;;
84996;SDS011;75312;47.528;19.016;2024-03-08T00:07:16;29.27;;;27.27;;
84996;SDS011;75312;47.528;19.016;2024-03-08T00:07:46;30.07;;;27.97;;
84996;SDS011;75312;47.528;19.016;2024-03-08T00:08:17;30.43;;;27.93;;
84996;SDS011;75312;47.528;19.016;2024-03-08T00:08:47;30.23;;;27.83;;
84996;SDS011;75312;47.528;19.016;2024-03-08T00:09:18;28.97;;;26.90;;
84996;SDS011;75312;47.528;19.016;2024-03-08T00:09:49;29.87;;;27.70;;
84996;SDS011;75312;47.528;19.016;2024-03-08T00:10:19;29.47;;;27.37;;
84996;SDS011;75312;47.528;19.016;2024-03-08T00:10:53;30.73;;;28.30;;
84996;SDS011;75312;47.528;19.016;2024-03-08T00:11:26;30.77;;;28.23;;
84996;SDS011;75312;47.528;19.016;2024-03-08T00:11:57;29.93;;;27.63;;
84996;SDS011;75312;47.528;19.016;2024-03-08T00:12:28;30.27;;;27.77;;
84996;SDS011;75312;47.528;19.016;2024-03-08T00:12:58;30.90;;;28.17;;
84996;SDS011;75312;47.528;19.016;2024-03-08T00:13:31;27.67;;;25.80;;
84996;SDS011;75312;47.528;19.016;2024-03-08T00:14:02;28.90;;;27.20;;
84996;SDS011;75312;47.528;19.016;2024-03-08T00:14:36;29.13;;;27.53;;
84996;SDS011;75312;47.528;19.016;2024-03-08T00:15:16;30.70;;;29.03;;
84996;SDS011;75312;47.528;19.016;2024-03-08T00:15:47;30.80;;;29.07;;
84996;SDS011;75312;47.528;19.016;2024-03-08T00:16:18;29.73;;;27.77;;
84996;SDS011;75312;47.528;19.016;2024-03-08T00:16:49;29.53;;;27.27;;
84996;SDS011;75312;47.528;19.016;2024-03-08T00:17:20;29.80;;;27.63;;
84996;SDS011;75312;47.528;19.016;2024-03-08T00:17:55;30.53;;;28.53;;
84996;SDS011;75312;47.528;19.016;2024-03-08T00:18:25;29.57;;;27.47;;
84996;SDS011;75312;47.528;19.016;2024-03-08T00:18:56;28.70;;;26.77;;
84996;SDS011;75312;47.528;19.016;2024-03-08T00:19:27;28.90;;;27.03;;
84996;SDS011;75312;47.528;19.016;2024-03-08T00:19:57;28.37;;;26.73;;
84996;SDS011;75312;47.528;19.016;2024-03-08T00:20:31;27.70;;;25.93;;
84996;SDS011;75312;47.528;19.016;2024-03-08T00:21:02;30.77;;;28.40;;
84996;SDS011;75312;47.528;19.016;2024-03-08T00:21:32;30.17;;;27.83;;
84996;SDS011;75312;47.528;19.016;2024-03-08T00:22:03;29.80;;;27.70;;
84996;SDS011;75312;47.528;19.016;2024-03-08T00:22:38;29.77;;;27.63;;
84996;SDS011;75312;47.528;19.016;2024-03-08T00:23:11;27.67;;;25.97;;
84996;SDS011;75312;47.528;19.016;2024-03-08T00:23:42;28.67;;;27.10;;
84996;SDS011;75312;47.528;19.016;2024-03-08T00:24:12;29.47;;;27.80;;
84996;SDS011;75312;47.528;19.016;2024-03-08T00:24:43;31.73;;;29.40;;
84996;SDS011;75312;47.528;19.016;2024-03-08T00:25:14;30.43;;;28.00;;
84996;SDS011;75312;47.528;19.016;2024-03-08T00:25:44;29.83;;;27.83;;
84996;SDS011;75312;47.528;19.016;2024-03-08T00:26:15;30.03;;;28.03;;
84996;SDS011;75312;47.528;19.016;2024-03-08T00:26:48;30.83;;;28.73;;
84996;SDS011;75312;47.528;19.016;2024-03-08T00:27:19;32.90;;;29.97;;
84996;SDS011;75312;47.528;19.016;2024-03-08T00:27:52;31.90;;;29.20;;
84996;SDS011;75312;47.528;19.016;2024-03-08T00:28:26;31.37;;;28.57;;
84996;SDS011;75312;47.528;19.016;2024-03-08T00:28:58;31.37;;;28.40;;
84996;SDS011;75312;47.528;19.016;2024-03-08T00:29:29;30.50;;;27.73;;
84996;SDS011;75312;47.528;19.016;2024-03-08T00:30:02;32.20;;;28.90;;
84996;SDS011;75312;47.528;19.016;2024-03-08T00:30:36;31.83;;;28.53;;
84996;SDS011;75312;47.528;19.016;2024-03-08T00:31:10;31.87;;;28.87;;
84996;SDS011;75312;47.528;19.016;2024-03-08T00:31:43;31.10;;;28.07;;
84996;SDS011;75312;47.528;19.016;2024-03-08T00:32:16;31.03;;;28.13;;
84996;SDS011;75312;47.528;19.016;2024-03-08T00:32:47;29.63;;;27.37;;
84996;SDS011;75312;47.528;19.016;2024-03-08T00:33:18;31.37;;;29.13;;
84996;SDS011;75312;47.528;19.016;2024-03-08T00:33:49;31.20;;;28.90;;
84996;SDS011;75312;47.528;19.016;2024-03-08T00:34:20;32.07;;;29.50;;
84996;SDS011;75312;47.528;19.016;2024-03-08T00:34:50;31.73;;;29.27;;
84996;SDS011;75312;47.528;19.016;2024-03-08T00:35:24;32.33;;;29.67;;
84996;SDS011;75312;47.528;19.016;2024-03-08T00:35:55;32.43;;;29.93;;
84996;SDS011;75312;47.528;19.016;2024-03-08T00:36:25;29.53;;;27.53;;
84996;SDS011;75312;47.528;19.016;2024-03-08T00:37:02;29.97;;;27.97;;
84996;SDS011;75312;47.528;19.016;2024-03-08T00:37:34;30.13;;;27.97;;
84996;SDS011;75312;47.528;19.016;2024-03-08T00:38:04;29.17;;;27.03;;
84996;SDS011;75312;47.528;19.016;2024-03-08T00:38:35;30.37;;;27.83;;
84996;SDS011;75312;47.528;19.016;2024-03-08T00:39:10;30.10;;;27.63;;
84996;SDS011;75312;47.528;19.016;2024-03-08T00:39:42;29.53;;;27.27;;
84996;SDS011;75312;47.528;19.016;2024-03-08T00:40:17;30.80;;;28.67;;
84996;SDS011;75312;47.528;19.016;2024-03-08T00:40:50;30.47;;;28.20;;
84996;SDS011;75312;47.528;19.016;2024-03-08T00:41:23;31.10;;;28.83;;
84996;SDS011;75312;47.528;19.016;2024-03-08T00:41:56;31.30;;;29.10;;
84996;SDS011;75312;47.528;19.016;2024-03-08T00:42:27;31.00;;;28.93;;
84996;SDS011;75312;47.528;19.016;2024-03-08T00:42:57;30.20;;;28.37;;
84996;SDS011;75312;47.528;19.016;2024-03-08T00:43:28;32.43;;;30.17;;
84996;SDS011;75312;47.528;19.016;2024-03-08T00:44:00;33.07;;;30.43;;
84996;SDS011;75312;47.528;19.016;2024-03-08T00:44:34;32.73;;;30.13;;
84996;SDS011;75312;47.528;19.016;2024-03-08T00:45:08;32.27;;;29.63;;
84996;SDS011;75312;47.528;19.016;2024-03-08T00:45:40;32.77;;;30.20;;
84996;SDS011;75312;47.528;19.016;2024-03-08T00:46:13;32.83;;;30.27;;
84996;SDS011;75312;47.528;19.016;2024-03-08T00:46:47;33.83;;;31.27;;
84996;SDS011;75312;47.528;19.016;2024-03-08T00:47:20;32.87;;;30.33;;
84996;SDS011;75312;47.528;19.016;2024-03-08T00:47:51;33.33;;;30.83;;
84996;SDS011;75312;47.528;19.016;2024-03-08T00:48:21;32.50;;;30.10;;
84996;SDS011;75312;47.528;19.016;2024-03-08T00:48:52;34.27;;;31.43;;
84996;SDS011;75312;47.528;19.016;2024-03-08T00:49:25;35.80;;;32.30;;
84996;SDS011;75312;47.528;19.016;2024-03-08T00:49:58;36.23;;;32.27;;
84996;SDS011;75312;47.528;19.016;2024-03-08T00:50:28;34.47;;;31.23;;
84996;SDS011;75312;47.528;19.016;2024-03-08T00:50:59;32.90;;;30.23;;
84996;SDS011;75312;47.528;19.016;2024-03-08T00:51:30;32.73;;;30.77;;
84996;SDS011;75312;47.528;19.016;2024-03-08T00:52:00;32.93;;;30.97;;
84996;SDS011;75312;47.528;19.016;2024-03-08T00:52:33;33.93;;;31.30;;
84996;SDS011;75312;47.528;19.016;2024-03-08T00:53:04;35.90;;;33.00;;
84996;SDS011;75312;47.528;19.016;2024-03-08T00:53:36;35.50;;;32.50;;
84996;SDS011;75312;47.528;19.016;2024-03-08T00:54:06;35.47;;;31.97;;
84996;SDS011;75312;47.528;19.016;2024-03-08T00:54:37;35.57;;;32.40;;
84996;SDS011;75312;47.528;19.016;2024-03-08T00:55:07;35.13;;;32.13;;
84996;SDS011;75312;47.528;19.016;2024-03-08T00:55:41;33.30;;;30.07;;
84996;SDS011;75312;47.528;19.016;2024-03-08T00:56:12;33.53;;;30.57;;
84996;SDS011;75312;47.528;19.016;2024-03-08T00:56:42;35.17;;;32.10;;
84996;SDS011;75312;47.528;19.016;2024-03-08T00:57:13;35.37;;;32.47;;
84996;SDS011;75312;47.528;19.016;2024-03-08T00:57:43;36.37;;;33.23;;
84996;SDS011;75312;47.528;19.016;2024-03-08T00:58:14;36.20;;;33.17;;
84996;SDS011;75312;47.528;19.016;2024-03-08T00:58:45;34.57;;;31.93;;
84996;SDS011;75312;47.528;19.016;2024-03-08T00:59:15;35.90;;;32.90;;
84996;SDS011;75312;47.528;19.016;2024-03-08T00:59:49;36.13;;;33.03;;
84996;SDS011;75312;47.528;19.016;2024-03-08T01:00:25;35.40;;;32.03;;
84996;SDS011;75312;47.528;19.016;2024-03-08T01:01:00;33.00;;;30.07;;
84996;SDS011;75312;47.528;19.016;2024-03-08T01:01:33;33.50;;;31.03;;
84996;SDS011;75312;47.528;19.016;2024-03-08T01:02:03;31.60;;;29.47;;
84996;SDS011;75312;47.528;19.016;2024-03-08T01:02:34;31.23;;;29.13;;
84996;SDS011;75312;47.528;19.016;2024-03-08T01:03:05;32.47;;;29.73;;
84996;SDS011;75312;47.528;19.016;2024-03-08T01:03:36;33.07;;;30.00;;
84996;SDS011;75312;47.528;19.016;2024-03-08T01:04:07;33.33;;;30.27;;
84996;SDS011;75312;47.528;19.016;2024-03-08T01:04:38;33.03;;;30.47;;
84996;SDS011;75312;47.528;19.016;2024-03-08T01:05:08;32.27;;;29.73;;
84996;SDS011;75312;47.528;19.016;2024-03-08T01:05:39;32.73;;;29.80;;
84996;SDS011;75312;47.528;19.016;2024-03-08T01:06:09;32.40;;;29.77;;
84996;SDS011;75312;47.528;19.016;2024-03-08T01:06:41;33.53;;;30.80;;
84996;SDS011;75312;47.528;19.016;2024-03-08T01:07:15;34.03;;;31.13;;
84996;SDS011;75312;47.528;19.016;2024-03-08T01:07:46;34.43;;;31.37;;
84996;SDS011;75312;47.528;19.016;2024-03-08T01:08:16;32.47;;;29.77;;
84996;SDS011;75312;47.528;19.016;2024-03-08T01:08:49;30.17;;;28.03;;
84996;SDS011;75312;47.528;19.016;2024-03-08T01:09:25;32.03;;;29.73;;
84996;SDS011;75312;47.528;19.016;2024-03-08T01:09:57;31.37;;;29.20;;
84996;SDS011;75312;47.528;19.016;2024-03-08T01:10:27;30.67;;;28.67;;
84996;SDS011;75312;47.528;19.016;2024-03-08T01:10:58;31.13;;;28.97;;
84996;SDS011;75312;47.528;19.016;2024-03-08T01:11:30;32.57;;;29.97;;
84996;SDS011;75312;47.528;19.016;2024-03-08T01:12:01;32.47;;;29.83;;
84996;SDS011;75312;47.528;19.016;2024-03-08T01:12:32;30.57;;;28.40;;
84996;SDS011;75312;47.528;19.016;2024-03-08T01:13:02;31.33;;;29.20;;
84996;SDS011;75312;47.528;19.016;2024-03-08T01:13:33;33.27;;;30.73;;
84996;SDS011;75312;47.528;19.016;2024-03-08T01:14:06;32.47;;;30.17;;
84996;SDS011;75312;47.528;19.016;2024-03-08T01:14:37;33.47;;;30.80;;
84996;SDS011;75312;47.528;19.016;2024-03-08T01:15:07;34.93;;;31.87;;
84996;SDS011;75312;47.528;19.016;2024-03-08T01:15:39;32.93;;;30.10;;
84996;SDS011;75312;47.528;19.016;2024-03-08T01:16:11;32.00;;;29.70;;
84996;SDS011;75312;47.528;19.016;2024-03-08T01:16:42;31.33;;;29.33;;
84996;SDS011;75312;47.528;19.016;2024-03-08T01:17:18;31.60;;;29.60;;
84996;SDS011;75312;47.528;19.016;2024-03-08T01:17:48;32.10;;;29.80;;
84996;SDS011;75312;47.528;19.016;2024-03-08T01:18:20;33.03;;;30.30;;
84996;SDS011;75312;47.528;19.016;2024-03-08T01:18:51;33.03;;;30.50;;
84996;SDS011;75312;47.528;19.016;2024-03-08T01:19:27;32.47;;;30.17;;
84996;SDS011;75312;47.528;19.016;2024-03-08T01:19:57;33.00;;;30.60;;
84996;SDS011;75312;47.528;19.016;2024-03-08T01:20:31;34.00;;;31.07;;
84996;SDS011;75312;47.528;19.016;2024-03-08T01:21:01;33.80;;;30.83;;
84996;SDS011;75312;47.528;19.016;2024-03-08T01:21:32;34.07;;;31.07;;
84996;SDS011;75312;47.528;19.016;2024-03-08T01:22:05;33.70;;;30.63;;
84996;SDS011;75312;47.528;19.016;2024-03-08T01:22:35;34.37;;;31.37;;
84996;SDS011;75312;47.528;19.016;2024-03-08T01:23:06;36.53;;;33.40;;
84996;SDS011;75312;47.528;19.016;2024-03-08T01:23:40;34.03;;;31.23;;
84996;SDS011;75312;47.528;19.016;2024-03-08T01:24:13;32.77;;;30.10;;
84996;SDS011;75312;47.528;19.016;2024-03-08T01:24:47;33.53;;;30.77;;
84996;SDS011;75312;47.528;19.016;2024-03-08T01:25:17;32.70;;;30.03;;
84996;SDS011;75312;47.528;19.016;2024-03-08T01:25:48;32.17;;;30.00;;
84996;SDS011;75312;47.528;19.016;2024-03-08T01:26:19;33.90;;;31.50;;
84996;SDS011;75312;47.528;19.016;2024-03-08T01:26:52;36.57;;;33.27;;
84996;SDS011;75312;47.528;19.016;2024-03-08T01:27:23;34.87;;;31.90;;
84996;SDS011;75312;47.528;19.016;2024-03-08T01:27:55;33.30;;;30.67;;
84996;SDS011;75312;47.528;19.016;2024-03-08T01:28:25;33.27;;;30.83;;
84996;SDS011;75312;47.528;19.016;2024-03-08T01:28:56;33.90;;;31.57;;
84996;SDS011;75312;47.528;19.016;2024-03-08T01:29:29;33.13;;;30.67;;
84996;SDS011;75312;47.528;19.016;2024-03-08T01:30:00;33.13;;;30.33;;
84996;SDS011;75312;47.528;19.016;2024-03-08T01:30:30;35.33;;;32.10;;
84996;SDS011;75312;47.528;19.016;2024-03-08T01:31:04;35.27;;;31.70;;
84996;SDS011;75312;47.528;19.016;2024-03-08T01:31:36;34.93;;;31.60;;
84996;SDS011;75312;47.528;19.016;2024-03-08T01:32:09;34.70;;;31.63;;
84996;SDS011;75312;47.528;19.016;2024-03-08T01:32:40;34.63;;;31.50;;
84996;SDS011;75312;47.528;19.016;2024-03-08T01:33:10;36.37;;;32.70;;
84996;SDS011;75312;47.528;19.016;2024-03-08T01:33:41;35.20;;;31.97;;
84996;SDS011;75312;47.528;19.016;2024-03-08T01:34:12;33.80;;;31.27;;
84996;SDS011;75312;47.528;19.016;2024-03-08T01:34:45;34.37;;;31.73;;
84996;SDS011;75312;47.528;19.016;2024-03-08T01:35:15;34.03;;;31.13;;
84996;SDS011;75312;47.528;19.016;2024-03-08T01:35:46;34.57;;;31.87;;
84996;SDS011;75312;47.528;19.016;2024-03-08T01:36:18;35.27;;;32.50;;
84996;SDS011;75312;47.528;19.016;2024-03-08T01:36:49;35.73;;;32.83;;
84996;SDS011;75312;47.528;19.016;2024-03-08T01:37:23;33.70;;;30.87;;
84996;SDS011;75312;47.528;19.016;2024-03-08T01:37:54;32.23;;;29.70;;
84996;SDS011;75312;47.528;19.016;2024-03-08T01:38:24;32.57;;;29.90;;
84996;SDS011;75312;47.528;19.016;2024-03-08T01:38:55;34.13;;;31.07;;
84996;SDS011;75312;47.528;19.016;2024-03-08T01:39:28;35.13;;;32.13;;
84996;SDS011;75312;47.528;19.016;2024-03-08T01:39:59;32.90;;;30.37;;
84996;SDS011;75312;47.528;19.016;2024-03-08T01:40:30;33.57;;;31.27;;
84996;SDS011;75312;47.528;19.016;2024-03-08T01:41:02;34.07;;;31.73;;
84996;SDS011;75312;47.528;19.016;2024-03-08T01:41:34;34.60;;;32.00;;
84996;SDS011;75312;47.528;19.016;2024-03-08T01:42:05;34.97;;;32.03;;
84996;SDS011;75312;47.528;19.016;2024-03-08T01:42:36;34.23;;;31.40;;
84996;SDS011;75312;47.528;19.016;2024-03-08T01:43:47;34.60;;;31.57;;
84996;SDS011;75312;47.528;19.016;2024-03-08T01:44:20;34.27;;;31.40;;
84996;SDS011;75312;47.528;19.016;2024-03-08T01:44:50;34.47;;;31.47;;
84996;SDS011;75312;47.528;19.016;2024-03-08T01:45:21;33.03;;;30.43;;
84996;SDS011;75312;47.528;19.016;2024-03-08T01:45:52;34.40;;;31.73;;
84996;SDS011;75312;47.528;19.016;2024-03-08T01:46:25;34.37;;;31.83;;
84996;SDS011;75312;47.528;19.016;2024-03-08T01:46:58;35.13;;;32.33;;
84996;SDS011;75312;47.528;19.016;2024-03-08T01:47:29;35.67;;;32.57;;
84996;SDS011;75312;47.528;19.016;2024-03-08T01:48:02;34.07;;;31.43;;
84996;SDS011;75312;47.528;19.016;2024-03-08T01:48:34;35.43;;;32.90;;
84996;SDS011;75312;47.528;19.016;2024-03-08T01:49:05;36.63;;;33.67;;
84996;SDS011;75312;47.528;19.016;2024-03-08T01:49:40;32.90;;;30.40;;
84996;SDS011;75312;47.528;19.016;2024-03-08T01:50:16;33.53;;;31.10;;
84996;SDS011;75312;47.528;19.016;2024-03-08T01:50:47;34.27;;;31.90;;
84996;SDS011;75312;47.528;19.016;2024-03-08T01:51:22;35.13;;;32.80;;
84996;SDS011;75312;47.528;19.016;2024-03-08T01:51:53;34.00;;;31.97;;
84996;SDS011;75312;47.528;19.016;2024-03-08T01:52:27;34.80;;;32.30;;
84996;SDS011;75312;47.528;19.016;2024-03-08T01:53:02;38.23;;;34.30;;
84996;SDS011;75312;47.528;19.016;2024-03-08T01:53:34;37.00;;;33.47;;
84996;SDS011;75312;47.528;19.016;2024-03-08T01:54:07;36.90;;;33.27;;
84996;SDS011;75312;47.528;19.016;2024-03-08T01:54:43;37.47;;;34.03;;
84996;SDS011;75312;47.528;19.016;2024-03-08T01:55:17;34.77;;;31.90;;
84996;SDS011;75312;47.528;19.016;2024-03-08T01:55:54;35.97;;;32.80;;
84996;SDS011;75312;47.528;19.016;2024-03-08T01:56:28;36.00;;;33.10;;
84996;SDS011;75312;47.528;19.016;2024-03-08T01:57:01;36.20;;;33.27;;
84996;SDS011;75312;47.528;19.016;2024-03-08T01:57:34;37.20;;;34.27;;
84996;SDS011;75312;47.528;19.016;2024-03-08T01:58:09;36.67;;;33.67;;
84996;SDS011;75312;47.528;19.016;2024-03-08T01:58:41;36.57;;;33.73;;
84996;SDS011;75312;47.528;19.016;2024-03-08T01:59:17;37.77;;;34.47;;
84996;SDS011;75312;47.528;19.016;2024-03-08T01:59:47;37.10;;;33.70;;
84996;SDS011;75312;47.528;19.016;2024-03-08T02:00:18;38.00;;;34.40;;
84996;SDS011;75312;47.528;19.016;2024-03-08T02:00:54;37.47;;;34.03;;
84996;SDS011;75312;47.528;19.016;2024-03-08T02:01:26;37.10;;;34.40;;
84996;SDS011;75312;47.528;19.016;2024-03-08T02:02:01;36.37;;;33.50;;
84996;SDS011;75312;47.528;19.016;2024-03-08T02:02:39;40.07;;;35.83;;
84996;SDS011;75312;47.528;19.016;2024-03-08T02:03:15;38.63;;;34.87;;
84996;SDS011;75312;47.528;19.016;2024-03-08T02:03:49;38.37;;;34.87;;
84996;SDS011;75312;47.528;19.016;2024-03-08T02:04:20;37.80;;;34.43;;
84996;SDS011;75312;47.528;19.016;2024-03-08T02:04:51;39.33;;;35.67;;
84996;SDS011;75312;47.528;19.016;2024-03-08T02:05:23;37.63;;;34.30;;
84996;SDS011;75312;47.528;19.016;2024-03-08T02:05:55;37.90;;;34.43;;
84996;SDS011;75312;47.528;19.016;2024-03-08T02:06:26;38.77;;;35.17;;
84996;SDS011;75312;47.528;19.016;2024-03-08T02:06:57;38.43;;;35.37;;
84996;SDS011;75312;47.528;19.016;2024-03-08T02:07:35;37.80;;;34.80;;
84996;SDS011;75312;47.528;19.016;2024-03-08T02:08:06;37.30;;;33.73;;
84996;SDS011;75312;47.528;19.016;2024-03-08T02:08:42;37.40;;;34.03;;
84996;SDS011;75312;47.528;19.016;2024-03-08T02:09:16;36.63;;;33.67;;
84996;SDS011;75312;47.528;19.016;2024-03-08T02:09:47;37.97;;;34.27;;
84996;SDS011;75312;47.528;19.016;2024-03-08T02:10:18;38.03;;;34.63;;
84996;SDS011;75312;47.528;19.016;2024-03-08T02:10:48;37.87;;;34.77;;
84996;SDS011;75312;47.528;19.016;2024-03-08T02:11:22;38.23;;;35.53;;
84996;SDS011;75312;47.528;19.016;2024-03-08T02:11:58;37.23;;;34.57;;
84996;SDS011;75312;47.528;19.016;2024-03-08T02:12:29;38.60;;;35.13;;
84996;SDS011;75312;47.528;19.016;2024-03-08T02:13:03;39.10;;;35.57;;
84996;SDS011;75312;47.528;19.016;2024-03-08T02:13:34;39.33;;;35.70;;
84996;SDS011;75312;47.528;19.016;2024-03-08T02:14:04;36.47;;;33.57;;
84996;SDS011;75312;47.528;19.016;2024-03-08T02:14:37;35.23;;;32.57;;
84996;SDS011;75312;47.528;19.016;2024-03-08T02:15:10;37.70;;;34.33;;
84996;SDS011;75312;47.528;19.016;2024-03-08T02:16:24;38.33;;;35.03;;
84996;SDS011;75312;47.528;19.016;2024-03-08T02:17:03;37.77;;;34.47;;
84996;SDS011;75312;47.528;19.016;2024-03-08T02:17:35;37.30;;;34.40;;
84996;SDS011;75312;47.528;19.016;2024-03-08T02:18:05;35.73;;;33.20;;
84996;SDS011;75312;47.528;19.016;2024-03-08T02:18:36;36.53;;;33.47;;
84996;SDS011;75312;47.528;19.016;2024-03-08T02:19:07;38.17;;;34.77;;
84996;SDS011;75312;47.528;19.016;2024-03-08T02:19:40;35.90;;;33.07;;
84996;SDS011;75312;47.528;19.016;2024-03-08T02:20:11;38.90;;;35.73;;
84996;SDS011;75312;47.528;19.016;2024-03-08T02:20:43;40.57;;;36.77;;
84996;SDS011;75312;47.528;19.016;2024-03-08T02:21:14;37.40;;;34.07;;
84996;SDS011;75312;47.528;19.016;2024-03-08T02:21:48;36.53;;;33.63;;
84996;SDS011;75312;47.528;19.016;2024-03-08T02:22:19;36.43;;;33.57;;
84996;SDS011;75312;47.528;19.016;2024-03-08T02:22:50;37.63;;;34.20;;
84996;SDS011;75312;47.528;19.016;2024-03-08T02:23:21;37.57;;;34.33;;
84996;SDS011;75312;47.528;19.016;2024-03-08T02:23:55;37.37;;;34.57;;
84996;SDS011;75312;47.528;19.016;2024-03-08T02:24:25;36.67;;;33.63;;
84996;SDS011;75312;47.528;19.016;2024-03-08T02:24:57;37.47;;;34.07;;
84996;SDS011;75312;47.528;19.016;2024-03-08T02:25:28;37.80;;;34.27;;
84996;SDS011;75312;47.528;19.016;2024-03-08T02:25:59;37.70;;;34.53;;
84996;SDS011;75312;47.528;19.016;2024-03-08T02:26:34;38.73;;;35.17;;
84996;SDS011;75312;47.528;19.016;2024-03-08T02:27:05;39.77;;;35.73;;
84996;SDS011;75312;47.528;19.016;2024-03-08T02:27:39;38.73;;;34.90;;
84996;SDS011;75312;47.528;19.016;2024-03-08T02:28:12;38.73;;;35.30;;
84996;SDS011;75312;47.528;19.016;2024-03-08T02:28:44;39.10;;;35.50;;
84996;SDS011;75312;47.528;19.016;2024-03-08T02:29:16;37.83;;;34.50;;
84996;SDS011;75312;47.528;19.016;2024-03-08T02:29:47;38.30;;;35.20;;
84996;SDS011;75312;47.528;19.016;2024-03-08T02:30:18;38.70;;;35.50;;
84996;SDS011;75312;47.528;19.016;2024-03-08T02:30:51;37.97;;;34.77;;
84996;SDS011;75312;47.528;19.016;2024-03-08T02:31:25;36.17;;;33.87;;
84996;SDS011;75312;47.528;19.016;2024-03-08T02:31:59;38.70;;;35.67;;
84996;SDS011;75312;47.528;19.016;2024-03-08T02:32:29;39.57;;;35.97;;
84996;SDS011;75312;47.528;19.016;2024-03-08T02:33:00;38.53;;;35.00;;
84996;SDS011;75312;47.528;19.016;2024-03-08T02:33:31;40.10;;;36.40;;
84996;SDS011;75312;47.528;19.016;2024-03-08T02:34:02;38.53;;;35.07;;
84996;SDS011;75312;47.528;19.016;2024-03-08T02:34:33;37.53;;;34.10;;
84996;SDS011;75312;47.528;19.016;2024-03-08T02:35:06;39.47;;;35.90;;
84996;SDS011;75312;47.528;19.016;2024-03-08T02:35:37;38.77;;;35.73;;
84996;SDS011;75312;47.528;19.016;2024-03-08T02:36:10;38.47;;;35.30;;
84996;SDS011;75312;47.528;19.016;2024-03-08T02:36:41;39.13;;;35.63;;
84996;SDS011;75312;47.528;19.016;2024-03-08T02:37:12;38.57;;;34.87;;
84996;SDS011;75312;47.528;19.016;2024-03-08T02:37:43;38.93;;;35.37;;
84996;SDS011;75312;47.528;19.016;2024-03-08T02:38:14;39.90;;;36.07;;
84996;SDS011;75312;47.528;19.016;2024-03-08T02:38:49;38.47;;;35.17;;
84996;SDS011;75312;47.528;19.016;2024-03-08T02:39:21;38.00;;;35.17;;
84996;SDS011;75312;47.528;19.016;2024-03-08T02:39:52;36.83;;;34.37;;
84996;SDS011;75312;47.528;19.016;2024-03-08T02:40:25;40.33;;;37.07;;
84996;SDS011;75312;47.528;19.016;2024-03-08T02:40:56;40.90;;;37.70;;
84996;SDS011;75312;47.528;19.016;2024-03-08T02:41:29;42.17;;;38.30;;
84996;SDS011;75312;47.528;19.016;2024-03-08T02:41:59;44.00;;;39.60;;
84996;SDS011;75312;47.528;19.016;2024-03-08T02:42:32;44.47;;;40.30;;
84996;SDS011;75312;47.528;19.016;2024-03-08T02:43:03;43.97;;;39.47;;
84996;SDS011;75312;47.528;19.016;2024-03-08T02:43:35;43.47;;;39.17;;
84996;SDS011;75312;47.528;19.016;2024-03-08T02:44:05;44.37;;;40.40;;
84996;SDS011;75312;47.528;19.016;2024-03-08T02:44:42;42.13;;;38.70;;
84996;SDS011;75312;47.528;19.016;2024-03-08T02:45:14;42.73;;;38.87;;
84996;SDS011;75312;47.528;19.016;2024-03-08T02:45:44;39.67;;;36.37;;
84996;SDS011;75312;47.528;19.016;2024-03-08T02:46:17;40.13;;;36.70;;
84996;SDS011;75312;47.528;19.016;2024-03-08T02:46:48;40.57;;;37.00;;
84996;SDS011;75312;47.528;19.016;2024-03-08T02:47:20;40.40;;;36.70;;
84996;SDS011;75312;47.528;19.016;2024-03-08T02:47:53;41.57;;;37.20;;
84996;SDS011;75312;47.528;19.016;2024-03-08T02:48:23;43.33;;;38.60;;
84996;SDS011;75312;47.528;19.016;2024-03-08T02:48:54;40.40;;;36.63;;
84996;SDS011;75312;47.528;19.016;2024-03-08T02:49:24;40.70;;;36.63;;
84996;SDS011;75312;47.528;19.016;2024-03-08T02:49:57;40.73;;;36.70;;
84996;SDS011;75312;47.528;19.016;2024-03-08T02:50:28;41.07;;;37.20;;
84996;SDS011;75312;47.528;19.016;2024-03-08T02:50:59;42.77;;;39.17;;
84996;SDS011;75312;47.528;19.016;2024-03-08T02:51:35;40.90;;;37.60;;
84996;SDS011;75312;47.528;19.016;2024-03-08T02:52:06;39.67;;;36.33;;
84996;SDS011;75312;47.528;19.016;2024-03-08T02:52:38;42.00;;;38.20;;
84996;SDS011;75312;47.528;19.016;2024-03-08T02:53:09;42.10;;;38.53;;
84996;SDS011;75312;47.528;19.016;2024-03-08T02:53:41;44.70;;;40.37;;
84996;SDS011;75312;47.528;19.016;2024-03-08T02:54:15;46.00;;;41.47;;
84996;SDS011;75312;47.528;19.016;2024-03-08T02:54:49;44.60;;;40.27;;
84996;SDS011;75312;47.528;19.016;2024-03-08T02:55:20;41.67;;;37.87;;
84996;SDS011;75312;47.528;19.016;2024-03-08T02:55:50;43.37;;;39.07;;
84996;SDS011;75312;47.528;19.016;2024-03-08T02:56:25;43.90;;;39.47;;
84996;SDS011;75312;47.528;19.016;2024-03-08T02:56:56;43.90;;;39.60;;
84996;SDS011;75312;47.528;19.016;2024-03-08T02:57:27;40.87;;;37.67;;
84996;SDS011;75312;47.528;19.016;2024-03-08T02:57:57;43.33;;;39.60;;
84996;SDS011;75312;47.528;19.016;2024-03-08T02:58:31;43.13;;;39.10;;
84996;SDS011;75312;47.528;19.016;2024-03-08T02:59:02;42.87;;;39.07;;
84996;SDS011;75312;47.528;19.016;2024-03-08T02:59:36;44.43;;;39.93;;
84996;SDS011;75312;47.528;19.016;2024-03-08T03:00:10;44.27;;;39.60;;
84996;SDS011;75312;47.528;19.016;2024-03-08T03:00:41;43.47;;;39.20;;
84996;SDS011;75312;47.528;19.016;2024-03-08T03:01:11;43.97;;;39.63;;
84996;SDS011;75312;47.528;19.016;2024-03-08T03:01:42;44.77;;;39.70;;
84996;SDS011;75312;47.528;19.016;2024-03-08T03:02:13;45.80;;;40.80;;
84996;SDS011;75312;47.528;19.016;2024-03-08T03:02:43;43.23;;;39.10;;
84996;SDS011;75312;47.528;19.016;2024-03-08T03:03:14;46.83;;;41.33;;
84996;SDS011;75312;47.528;19.016;2024-03-08T03:03:44;46.97;;;41.57;;
84996;SDS011;75312;47.528;19.016;2024-03-08T03:04:17;46.00;;;41.20;;
84996;SDS011;75312;47.528;19.016;2024-03-08T03:04:50;45.13;;;40.40;;
84996;SDS011;75312;47.528;19.016;2024-03-08T03:05:20;42.83;;;38.67;;
84996;SDS011;75312;47.528;19.016;2024-03-08T03:05:51;44.40;;;39.97;;